createdAt,value
2022-10-23T07:24:19.466Z,10.63
2022-10-23T07:27:29.234Z,10.74
2022-10-23T07:30:43.816Z,10.89
2022-10-23T07:33:57.825Z,11.01
2022-10-23T07:37:07.533Z,11.09
2022-10-23T07:40:29.128Z,11.22
2022-10-23T07:43:40.184Z,11.28
2022-10-23T07:46:50.261Z,11.36
2022-10-23T07:50:00.618Z,11.42
2022-10-23T07:53:17.530Z,11.51
2022-10-23T07:56:30.116Z,11.64
2022-10-23T07:59:55.145Z,11.73
2022-10-23T08:03:13.347Z,11.93
2022-10-23T08:06:23.946Z,12.23
2022-10-23T08:09:41.759Z,12.53
2022-10-23T08:12:53.246Z,12.85
2022-10-23T08:16:15.550Z,13.16
2022-10-23T08:19:37.222Z,13.49
2022-10-23T08:22:47.034Z,13.75
2022-10-23T08:26:05.291Z,13.92
2022-10-23T08:29:16.654Z,14.07
2022-10-23T08:32:32.513Z,14.25
2022-10-23T08:35:49.587Z,14.47
2022-10-23T08:39:08.192Z,14.69
2022-10-23T08:42:27.392Z,14.88
2022-10-23T08:45:55.424Z,15.15
2022-10-23T08:49:36.888Z,15.49
2022-10-23T08:56:21.734Z,16.01
2022-10-23T08:59:39.876Z,16.01
2022-10-23T09:02:53.422Z,16.04
2022-10-23T09:06:12.414Z,15.95
2022-10-23T09:09:42.266Z,15.91
2022-10-23T09:12:52.105Z,15.91
2022-10-23T09:16:13.733Z,15.90
2022-10-23T09:19:27.017Z,15.87
2022-10-23T09:22:36.631Z,15.89
2022-10-23T09:25:57.333Z,15.96
2022-10-23T09:29:20.583Z,16.04
2022-10-23T09:32:43.487Z,16.15
2022-10-23T09:36:04.370Z,16.24
2022-10-23T09:39:24.073Z,16.27
2022-10-23T09:42:39.535Z,16.32
2022-10-23T09:45:58.100Z,16.24
2022-10-23T09:49:26.500Z,16.16
2022-10-23T09:52:38.384Z,16.15
2022-10-23T09:55:53.693Z,16.13
2022-10-23T09:59:08.776Z,16.22
2022-10-23T10:02:27.124Z,16.24
2022-10-23T10:05:56.659Z,16.24
2022-10-23T10:09:12.903Z,16.22
2022-10-23T10:12:41.654Z,16.26
2022-10-23T10:15:57.258Z,16.39
2022-10-23T10:19:19.723Z,16.74
2022-10-23T10:22:39.549Z,17.01
2022-10-23T10:26:07.919Z,17.11
2022-10-23T10:29:29.844Z,17.27
2022-10-23T10:32:52.861Z,17.48
2022-10-23T12:53:33.008Z,20.98
2022-10-23T12:56:46.178Z,21.08
2022-10-23T13:00:07.564Z,21.18
2022-10-23T13:03:34.736Z,21.30
2022-10-23T13:06:50.456Z,21.32
2022-10-23T13:26:31.975Z,21.11
2022-10-23T13:29:44.280Z,21.10
2022-10-23T13:32:59.291Z,21.09
2022-10-23T13:36:24.662Z,21.17
2022-10-23T13:39:37.290Z,21.25
2022-10-23T13:42:56.155Z,21.26
2022-10-23T13:46:16.786Z,21.32
2022-10-23T13:52:42.617Z,21.29
2022-10-23T13:56:20.927Z,21.22
2022-10-23T13:59:33.284Z,21.17
2022-10-23T14:02:45.695Z,21.10
2022-10-23T14:05:57.686Z,21.04
2022-10-23T14:09:10.387Z,20.95
2022-10-23T14:12:21.415Z,20.88
2022-10-23T14:15:44.738Z,20.83
2022-10-23T14:19:05.209Z,20.79
2022-10-23T14:22:26.486Z,20.75
2022-10-23T14:25:44.761Z,20.62
2022-10-23T14:29:02.372Z,20.44
2022-10-23T14:32:23.345Z,20.42
2022-10-23T14:39:26.145Z,20.11
2022-10-23T14:42:36.309Z,20.08
2022-10-23T14:45:46.408Z,20.10
2022-10-23T17:09:45.543Z,17.03
2022-10-23T17:13:00.971Z,16.88
2022-10-23T17:16:16.082Z,16.76
2022-10-23T17:19:44.274Z,16.59
2022-10-23T17:22:57.890Z,16.60
2022-10-23T17:26:10.176Z,16.66
2022-10-23T17:29:28.374Z,16.70
2022-10-23T17:32:39.566Z,16.62
2022-10-23T17:35:51.552Z,16.62
2022-10-23T17:39:03.184Z,16.66
2022-10-23T17:42:14.222Z,16.59
2022-10-23T17:45:26.764Z,16.57
2022-10-23T17:48:38.732Z,16.56
2022-10-23T17:51:54.901Z,16.51
2022-10-23T17:55:07.159Z,16.58
2022-10-23T17:58:18.464Z,16.59
2022-10-23T18:01:32.595Z,16.61
2022-10-23T18:04:44.541Z,16.70
2022-10-23T18:07:59.036Z,16.78
2022-10-23T18:11:16.072Z,16.85
2022-10-23T18:14:29.665Z,16.85
2022-10-23T18:17:44.008Z,16.83
2022-10-23T18:20:56.203Z,16.87
2022-10-23T18:24:08.724Z,16.87
2022-10-23T18:27:21.736Z,16.86
2022-10-23T18:30:33.429Z,16.87
2022-10-23T18:33:47.605Z,16.87
2022-10-23T18:36:58.255Z,16.78
2022-10-23T18:40:10.638Z,16.82
2022-10-23T18:43:42.665Z,16.80
2022-10-23T18:46:57.686Z,16.71
2022-10-23T18:50:14.059Z,16.61
2022-10-23T18:53:26.017Z,16.63
2022-10-23T18:56:40.753Z,16.65
2022-10-23T18:59:57.649Z,16.59
2022-10-23T19:03:11.486Z,16.55
2022-10-23T19:06:24.992Z,16.52
2022-10-23T19:09:36.728Z,16.60
2022-10-23T19:12:52.488Z,16.60
2022-10-23T19:16:08.024Z,16.62
2022-10-23T19:19:23.458Z,16.61
2022-10-23T19:22:47.513Z,16.58
2022-10-23T19:26:02.863Z,16.48
2022-10-23T19:29:23.292Z,16.49
2022-10-23T19:32:35.693Z,16.47
2022-10-23T19:35:50.472Z,16.48
2022-10-23T19:39:03.388Z,16.44
2022-10-23T19:42:18.312Z,16.40
2022-10-23T19:48:44.965Z,16.34
2022-10-23T19:51:56.886Z,16.35
2022-10-23T19:55:12.803Z,16.34
2022-10-23T19:58:25.143Z,16.27
2022-10-23T20:01:37.951Z,16.23
2022-10-23T20:04:51.272Z,16.15
2022-10-23T20:08:03.841Z,16.07
2022-10-23T20:11:22.758Z,16.01
2022-10-23T20:14:36.101Z,15.97
2022-10-23T20:17:49.763Z,15.92
2022-10-23T20:21:06.259Z,15.88
2022-10-23T20:24:23.845Z,15.83
2022-10-23T20:27:38.983Z,15.80
2022-10-23T20:30:52.910Z,15.75
2022-10-23T20:34:04.972Z,15.67
2022-10-23T20:37:15.947Z,15.64
2022-10-23T20:40:26.685Z,15.57
2022-10-23T20:43:39.096Z,15.59
2022-10-23T20:46:51.224Z,15.55
